Time;durP1;ratioP1;P1;durP2;ratioP2;P2;SDS_P1;SDS_P2;PMS_P1;PMS_P2;Temp;Humidity;BMP_temperature;BMP_pressure;BME280_temperature;BME280_humidity;BME280_pressure;Samples;Min_cycle;Max_cycle;Signal;HPM_P1;HPM_P2
2023/12/02 00:00:04;;;;;;;;;;;-0.50;99.90;;;;;;5133185;27;19923;-83
2023/12/02 00:02:29;;;;;;;;;;;-0.50;99.90;;;;;;5120904;27;19939;-84
2023/12/02 00:04:55;;;;;;;;;;;-0.50;99.90;;;;;;5119897;27;19968;-82
2023/12/02 00:07:20;;;;;;;;;;;-0.50;99.90;;;;;;5129143;27;19928;-83
2023/12/02 00:09:46;;;;;;;;;;;-0.50;99.90;;;;;;5120284;27;19923;-83
2023/12/02 00:12:11;;;;;;;;;;;-0.50;99.90;;;;;;5122800;27;19915;-84
2023/12/02 00:14:37;;;;;;;;;;;-0.50;99.90;;;;;;5121533;27;20696;-83
2023/12/02 00:17:03;;;;;;;;;;;-0.50;99.90;;;;;;5120540;27;19919;-83
2023/12/02 00:19:28;;;;;;;;;;;-0.50;99.90;;;;;;5122401;27;19919;-84
2023/12/02 00:21:54;;;;;;;;;;;-0.50;99.90;;;;;;5120950;27;20416;-83
2023/12/02 00:24:19;;;;;;;;;;;-0.50;99.90;;;;;;5121671;27;20336;-84
2023/12/02 00:26:45;;;;;;;;;;;-0.50;99.90;;;;;;5117625;27;19930;-84
2023/12/02 00:29:10;;;;;;;;;;;0.70;99.90;;;;;;5123799;27;19930;-84
2023/12/02 00:31:36;;;;;;;;;;;-0.40;99.90;;;;;;5123725;27;19962;-84
2023/12/02 00:34:02;;;;;;;;;;;-0.50;99.90;;;;;;5122656;27;19949;-84
2023/12/02 00:36:27;;;;;;;;;;;-0.50;99.90;;;;;;5122946;27;19927;-82
2023/12/02 00:38:53;;;;;;;;;;;-0.40;99.90;;;;;;5119450;27;19964;-83
2023/12/02 00:41:19;;;;;;;;;;;-0.40;99.90;;;;;;5119554;27;19973;-83
2023/12/02 00:43:44;;;;;;;;;;;-0.40;99.90;;;;;;5123173;27;19919;-83
2023/12/02 00:46:10;;;;;;;;;;;-0.40;99.90;;;;;;5123120;27;19938;-82
2023/12/02 00:48:35;;;;;;;;;;;0.10;99.90;;;;;;5119486;27;19927;-83
2023/12/02 00:51:01;;;;;;;;;;;-0.40;99.90;;;;;;5136498;27;19999;-84
2023/12/02 00:53:26;;;;;;;;;;;-0.50;99.90;;;;;;5116392;27;19938;-83
2023/12/02 00:55:52;;;;;;;;;;;-0.40;99.90;;;;;;5116088;27;19927;-83
2023/12/02 00:58:17;;;;;;;;;;;-0.50;99.90;;;;;;5117763;27;19919;-84
2023/12/02 01:00:43;;;;;;;;;;;-0.50;99.90;;;;;;5115457;27;19952;-82
2023/12/02 01:03:08;;;;;;;;;;;-0.50;99.90;;;;;;5120677;27;20349;-83
2023/12/02 01:05:37;;;;;;;;;;;-0.50;99.90;;;;;;5119689;27;19923;-83
2023/12/02 01:08:03;;;;;;;;;;;0.90;99.90;;;;;;5114492;27;19923;-83
2023/12/02 01:10:31;;;;;;;;;;;-0.40;99.90;;;;;;5118509;27;19926;-82
2023/12/02 01:12:59;;;;;;;;;;;-0.20;99.90;;;;;;5132815;27;19927;-83
2023/12/02 01:15:25;;;;;;;;;;;-0.40;99.90;;;;;;5137085;27;19934;-81
2023/12/02 01:17:50;;;;;;;;;;;-0.40;99.90;;;;;;5120855;27;21268;-83
2023/12/02 01:20:16;;;;;;;;;;;-0.40;99.90;;;;;;5134537;27;19948;-83
2023/12/02 01:22:41;;;;;;;;;;;-0.40;99.90;;;;;;5119605;27;20002;-83
2023/12/02 01:25:07;;;;;;;;;;;-0.40;99.90;;;;;;5120895;27;19927;-83
2023/12/02 01:27:33;;;;;;;;;;;-0.40;99.90;;;;;;5121446;27;19918;-83
2023/12/02 01:29:59;;;;;;;;;;;-0.30;99.90;;;;;;5121012;27;19931;-83
2023/12/02 01:32:25;;;;;;;;;;;-0.40;99.90;;;;;;5119749;27;20011;-83
2023/12/02 01:34:50;;;;;;;;;;;0.40;99.90;;;;;;5117327;27;19923;-82
2023/12/02 01:37:16;;;;;;;;;;;-0.40;99.90;;;;;;5118790;27;19919;-82
2023/12/02 01:39:41;;;;;;;;;;;-0.40;99.90;;;;;;5122051;27;19926;-82
2023/12/02 01:42:07;;;;;;;;;;;-0.40;99.90;;;;;;5115588;27;20018;-83
2023/12/02 01:44:33;;;;;;;;;;;-0.40;99.90;;;;;;5118388;27;20297;-82
2023/12/02 01:46:59;;;;;;;;;;;-0.40;99.90;;;;;;5116607;27;20317;-83
2023/12/02 01:49:24;;;;;;;;;;;-0.40;99.90;;;;;;5139589;27;20018;-82
2023/12/02 01:51:51;;;;;;;;;;;-0.40;99.90;;;;;;5123488;27;20013;-82
2023/12/02 01:54:17;;;;;;;;;;;-0.40;99.90;;;;;;5119305;27;19919;-82
2023/12/02 01:56:43;;;;;;;;;;;-0.30;99.90;;;;;;5120205;27;20402;-83
2023/12/02 01:59:08;;;;;;;;;;;-0.30;99.90;;;;;;5121184;27;20010;-83
2023/12/02 02:01:34;;;;;;;;;;;-0.30;99.90;;;;;;5118995;27;19957;-83
2023/12/02 02:04:00;;;;;;;;;;;0.80;99.90;;;;;;5125867;27;20367;-83
2023/12/02 02:06:25;;;;;;;;;;;-0.30;99.90;;;;;;5119783;27;19941;-83
2023/12/02 02:08:51;;;;;;;;;;;-0.30;99.90;;;;;;5121476;27;19919;-83
2023/12/02 02:11:16;;;;;;;;;;;-0.40;99.90;;;;;;5121843;27;20228;-83
2023/12/02 02:13:42;;;;;;;;;;;-0.30;99.90;;;;;;5123423;27;20010;-83
2023/12/02 02:16:07;;;;;;;;;;;0.90;99.90;;;;;;5144822;27;19970;-82
2023/12/02 02:18:35;;;;;;;;;;;-0.40;99.90;;;;;;5124485;27;19919;-84
2023/12/02 02:21:01;;;;;;;;;;;-0.30;99.90;;;;;;5151783;27;19919;-83
2023/12/02 02:23:26;;;;;;;;;;;-0.40;99.90;;;;;;5126040;27;20013;-83
2023/12/02 02:25:55;;;;;;;;;;;0.30;99.90;;;;;;5126098;27;19958;-83
2023/12/02 02:28:25;;;;;;;;;;;-0.40;99.90;;;;;;5121792;27;20283;-83
2023/12/02 02:30:50;;;;;;;;;;;-0.40;99.90;;;;;;5123047;27;19919;-83
2023/12/02 02:33:16;;;;;;;;;;;-0.40;99.90;;;;;;5125618;27;19968;-83
2023/12/02 02:35:42;;;;;;;;;;;-0.40;99.90;;;;;;5116052;27;19926;-83
2023/12/02 02:38:08;;;;;;;;;;;-0.40;99.90;;;;;;5125391;27;20014;-83
2023/12/02 02:40:34;;;;;;;;;;;-0.20;99.90;;;;;;5131197;27;20014;-83
2023/12/02 02:43:00;;;;;;;;;;;-0.40;99.90;;;;;;5129489;27;19924;-83
2023/12/02 02:45:26;;;;;;;;;;;-0.40;99.90;;;;;;5115348;27;19971;-83
2023/12/02 02:47:52;;;;;;;;;;;-0.40;99.90;;;;;;5129172;27;19919;-83
2023/12/02 02:50:18;;;;;;;;;;;-0.10;99.90;;;;;;5122733;27;19926;-83
2023/12/02 02:52:44;;;;;;;;;;;-0.40;99.90;;;;;;5126252;27;19919;-83
2023/12/02 02:55:09;;;;;;;;;;;-0.40;99.90;;;;;;5128105;27;20639;-82
2023/12/02 02:57:35;;;;;;;;;;;-0.50;99.90;;;;;;5151539;27;19963;-83
2023/12/02 03:00:04;;;;;;;;;;;0.20;99.90;;;;;;5130202;27;19923;-84
2023/12/02 03:02:29;;;;;;;;;;;-0.50;99.90;;;;;;5133459;27;19923;-83
2023/12/02 03:04:55;;;;;;;;;;;-0.40;99.90;;;;;;5134437;27;19919;-84
2023/12/02 03:07:21;;;;;;;;;;;-0.50;99.90;;;;;;5117014;27;20282;-82
2023/12/02 03:09:46;;;;;;;;;;;-0.40;99.90;;;;;;5137276;27;19925;-83
2023/12/02 03:12:12;;;;;;;;;;;-0.50;99.90;;;;;;5150573;27;19972;-83
2023/12/02 03:14:40;;;;;;;;;;;-0.50;99.90;;;;;;5128814;27;20707;-83
2023/12/02 03:17:06;;;;;;;;;;;-0.50;99.90;;;;;;5119784;27;20006;-83
2023/12/02 03:19:32;;;;;;;;;;;-0.50;99.90;;;;;;5129531;27;20349;-84
2023/12/02 03:21:57;;;;;;;;;;;0.30;99.90;;;;;;5119548;27;20014;-83
2023/12/02 03:24:23;;;;;;;;;;;-0.50;99.90;;;;;;5118674;27;20006;-83
2023/12/02 03:26:48;;;;;;;;;;;-0.50;99.90;;;;;;5127094;27;19964;-83
2023/12/02 03:29:14;;;;;;;;;;;0.40;99.90;;;;;;5122370;27;19972;-83
2023/12/02 03:31:39;;;;;;;;;;;-0.50;99.90;;;;;;5127591;27;19919;-83
2023/12/02 03:34:05;;;;;;;;;;;-0.50;99.90;;;;;;5134000;27;19925;-83
2023/12/02 03:36:30;;;;;;;;;;;-0.50;99.90;;;;;;5126458;27;19919;-82
2023/12/02 03:38:56;;;;;;;;;;;-0.50;99.90;;;;;;5114205;27;20054;-83
2023/12/02 03:41:22;;;;;;;;;;;-0.50;99.90;;;;;;5114723;27;19919;-84
2023/12/02 03:43:48;;;;;;;;;;;-0.50;99.90;;;;;;5133046;27;19962;-83
2023/12/02 03:46:13;;;;;;;;;;;-0.50;99.90;;;;;;5133176;27;19919;-83
2023/12/02 03:48:39;;;;;;;;;;;-0.50;99.90;;;;;;5132320;27;20366;-83
2023/12/02 03:51:04;;;;;;;;;;;0.90;99.90;;;;;;5122378;27;19987;-83
2023/12/02 03:53:34;;;;;;;;;;;-0.50;99.90;;;;;;5116139;27;19915;-83
2023/12/02 03:56:00;;;;;;;;;;;-0.50;99.90;;;;;;5117932;27;19958;-83
2023/12/02 03:58:30;;;;;;;;;;;-0.60;99.90;;;;;;5127218;27;19954;-83
2023/12/02 04:00:56;;;;;;;;;;;-0.20;99.90;;;;;;5132384;27;20396;-83
2023/12/02 04:03:22;;;;;;;;;;;-0.60;99.90;;;;;;5132966;27;19919;-83
2023/12/02 04:05:49;;;;;;;;;;;-0.60;99.90;;;;;;5125663;27;20014;-83
2023/12/02 04:08:14;;;;;;;;;;;-0.60;99.90;;;;;;5119489;27;20425;-83
2023/12/02 04:10:40;;;;;;;;;;;-0.60;99.90;;;;;;5130861;27;19977;-84
2023/12/02 04:13:05;;;;;;;;;;;-0.60;99.90;;;;;;5128178;27;19922;-83
2023/12/02 04:15:31;;;;;;;;;;;-0.70;99.90;;;;;;5134690;27;19919;-83
2023/12/02 04:17:57;;;;;;;;;;;-0.70;99.90;;;;;;5131423;27;20022;-84
2023/12/02 04:20:22;;;;;;;;;;;-0.70;99.90;;;;;;5131142;27;20391;-83
2023/12/02 04:22:48;;;;;;;;;;;-0.60;99.90;;;;;;5135178;27;19922;-84
2023/12/02 04:25:13;;;;;;;;;;;-0.60;99.90;;;;;;5159924;27;19971;-83
2023/12/02 04:27:39;;;;;;;;;;;-0.60;99.90;;;;;;5148248;27;19929;-83
2023/12/02 04:30:05;;;;;;;;;;;-0.60;99.90;;;;;;5132711;27;19961;-83
2023/12/02 04:32:30;;;;;;;;;;;-0.60;99.90;;;;;;5151239;27;19972;-84
2023/12/02 04:34:56;;;;;;;;;;;-0.60;99.90;;;;;;5127584;27;19922;-81
2023/12/02 04:37:25;;;;;;;;;;;-0.60;99.90;;;;;;5121553;27;20044;-83
2023/12/02 04:39:54;;;;;;;;;;;-0.60;99.90;;;;;;5133043;27;19918;-83
2023/12/02 04:42:20;;;;;;;;;;;-0.60;99.90;;;;;;5132054;27;19922;-83
2023/12/02 04:44:45;;;;;;;;;;;-0.70;99.90;;;;;;5130960;27;20285;-83
2023/12/02 04:47:11;;;;;;;;;;;-0.60;99.90;;;;;;5133149;27;20402;-83
2023/12/02 04:49:37;;;;;;;;;;;-0.70;99.90;;;;;;5131984;27;19930;-84
2023/12/02 04:52:03;;;;;;;;;;;-0.40;99.90;;;;;;5118754;27;19922;-84
2023/12/02 04:54:29;;;;;;;;;;;-0.70;99.90;;;;;;5123108;27;19942;-84
2023/12/02 04:56:54;;;;;;;;;;;-0.10;99.90;;;;;;5126168;27;19919;-85
2023/12/02 04:59:20;;;;;;;;;;;-0.70;99.90;;;;;;5125715;27;19919;-85
2023/12/02 05:01:46;;;;;;;;;;;-0.60;99.90;;;;;;5118990;27;19982;-84
2023/12/02 05:04:11;;;;;;;;;;;-0.70;99.90;;;;;;5121731;27;19920;-84
2023/12/02 05:06:40;;;;;;;;;;;-0.70;99.90;;;;;;5120437;27;19919;-84
2023/12/02 05:09:08;;;;;;;;;;;-0.60;99.90;;;;;;5132840;27;19919;-84
2023/12/02 05:11:33;;;;;;;;;;;-0.60;99.90;;;;;;5112075;27;19927;-84
2023/12/02 05:13:59;;;;;;;;;;;-0.30;99.90;;;;;;5129223;27;20282;-84
2023/12/02 05:16:25;;;;;;;;;;;-0.70;99.90;;;;;;5146832;27;19927;-83
2023/12/02 05:18:50;;;;;;;;;;;-0.70;99.90;;;;;;5114622;27;20270;-84
2023/12/02 05:21:16;;;;;;;;;;;-0.70;99.90;;;;;;5126812;27;19923;-84
2023/12/02 05:23:42;;;;;;;;;;;-0.70;99.90;;;;;;5120919;27;20430;-82
2023/12/02 05:26:08;;;;;;;;;;;-0.70;99.90;;;;;;5130137;27;19919;-83
2023/12/02 05:28:33;;;;;;;;;;;-0.70;99.90;;;;;;5143983;27;19972;-82
2023/12/02 05:30:59;;;;;;;;;;;-0.70;99.90;;;;;;5131269;27;20289;-83
2023/12/02 05:33:27;;;;;;;;;;;-0.80;99.90;;;;;;5131454;27;19923;-82
2023/12/02 05:35:53;;;;;;;;;;;-0.70;99.90;;;;;;5143527;27;20377;-82
2023/12/02 05:38:18;;;;;;;;;;;-0.70;99.90;;;;;;5138356;27;19922;-82
2023/12/02 05:40:44;;;;;;;;;;;-0.70;99.90;;;;;;5116295;27;20128;-82
2023/12/02 05:43:10;;;;;;;;;;;-0.80;99.90;;;;;;5132701;27;19927;-82
2023/12/02 05:45:35;;;;;;;;;;;-0.70;99.90;;;;;;5135549;27;19966;-82
2023/12/02 05:48:01;;;;;;;;;;;-0.80;99.90;;;;;;5158083;27;19919;-82
2023/12/02 05:50:26;;;;;;;;;;;-0.80;99.90;;;;;;5154071;27;19926;-83
2023/12/02 05:52:52;;;;;;;;;;;-0.80;99.90;;;;;;5132915;27;19919;-82
2023/12/02 05:55:18;;;;;;;;;;;-0.80;99.90;;;;;;5125745;27;19927;-83
2023/12/02 05:57:46;;;;;;;;;;;0.60;99.90;;;;;;5138338;27;19962;-83
2023/12/02 06:00:12;;;;;;;;;;;-0.80;99.90;;;;;;5144010;27;20316;-82
2023/12/02 06:02:38;;;;;;;;;;;-0.80;99.90;;;;;;5138185;27;19944;-83
2023/12/02 06:05:03;;;;;;;;;;;-0.80;99.90;;;;;;5131922;27;19972;-82
2023/12/02 06:07:29;;;;;;;;;;;-0.80;99.90;;;;;;5131342;27;20425;-82
2023/12/02 06:09:55;;;;;;;;;;;-0.80;99.90;;;;;;5139185;27;20046;-83
2023/12/02 06:12:20;;;;;;;;;;;-0.80;99.90;;;;;;5134947;27;20009;-83
2023/12/02 06:14:46;;;;;;;;;;;-0.80;99.90;;;;;;5129121;27;19923;-84
2023/12/02 06:17:11;;;;;;;;;;;-0.80;99.90;;;;;;5127874;27;19968;-83
2023/12/02 06:19:37;;;;;;;;;;;-0.90;99.90;;;;;;5132806;27;19972;-83
2023/12/02 06:22:02;;;;;;;;;;;-0.60;99.90;;;;;;5133604;27;20035;-83
2023/12/02 06:24:28;;;;;;;;;;;-0.80;99.90;;;;;;5137175;27;19925;-83
2023/12/02 06:26:53;;;;;;;;;;;0.70;99.90;;;;;;5123681;27;19919;-83
2023/12/02 06:29:19;;;;;;;;;;;-0.90;99.90;;;;;;5138138;27;20009;-83
2023/12/02 06:31:48;;;;;;;;;;;-0.40;99.90;;;;;;5128417;27;20339;-84
2023/12/02 06:34:13;;;;;;;;;;;-0.90;99.90;;;;;;5138026;27;19922;-83
2023/12/02 06:36:39;;;;;;;;;;;0.40;99.90;;;;;;5136342;27;19930;-82
2023/12/02 06:39:04;;;;;;;;;;;-0.90;99.90;;;;;;5140487;27;19963;-82
2023/12/02 06:41:30;;;;;;;;;;;-0.90;99.90;;;;;;5122380;27;19963;-83
2023/12/02 06:43:55;;;;;;;;;;;-0.90;99.90;;;;;;5120111;27;19931;-83
2023/12/02 06:46:22;;;;;;;;;;;-0.90;99.90;;;;;;5128605;27;19926;-83
2023/12/02 06:48:56;;;;;;;;;;;-0.90;99.90;;;;;;5118295;27;19930;-83
2023/12/02 06:51:28;;;;;;;;;;;-0.90;99.90;;;;;;5132380;27;19950;-83
2023/12/02 06:53:54;;;;;;;;;;;-0.90;99.90;;;;;;5125177;27;19926;-83
2023/12/02 06:56:21;;;;;;;;;;;-0.90;99.90;;;;;;5129404;27;20019;-83
2023/12/02 06:58:47;;;;;;;;;;;-0.90;99.90;;;;;;5133942;27;19919;-83
2023/12/02 07:01:26;;;;;;;;;;;-0.90;99.90;;;;;;5149978;27;19919;-83
2023/12/02 07:03:55;;;;;;;;;;;-0.90;99.90;;;;;;5130000;27;19975;-82
2023/12/02 07:06:20;;;;;;;;;;;-0.90;99.90;;;;;;5130256;27;19975;-82
2023/12/02 07:08:47;;;;;;;;;;;-0.90;99.90;;;;;;5120511;27;19976;-82
2023/12/02 07:11:12;;;;;;;;;;;-0.90;99.90;;;;;;5129102;27;20002;-82
2023/12/02 07:13:38;;;;;;;;;;;-0.90;99.90;;;;;;5128845;27;20035;-83
2023/12/02 07:16:03;;;;;;;;;;;-0.90;99.90;;;;;;5130342;27;19942;-82
2023/12/02 07:18:29;;;;;;;;;;;-0.90;99.90;;;;;;5111620;27;20026;-82
2023/12/02 07:20:54;;;;;;;;;;;-0.20;99.90;;;;;;5119372;27;19919;-83
2023/12/02 07:23:20;;;;;;;;;;;-0.90;99.90;;;;;;5128928;27;19926;-82
2023/12/02 07:25:45;;;;;;;;;;;-0.90;99.90;;;;;;5122880;27;20491;-83
2023/12/02 07:28:11;;;;;;;;;;;-0.70;99.90;;;;;;5117955;27;19919;-83
2023/12/02 07:30:37;;;;;;;;;;;-0.80;99.90;;;;;;5122198;27;19919;-82
2023/12/02 07:33:02;;;;;;;;;;;-0.90;99.90;;;;;;5125604;27;19954;-83
2023/12/02 07:35:28;;;;;;;;;;;-0.80;99.90;;;;;;5129434;27;19919;-82
2023/12/02 07:37:53;;;;;;;;;;;-0.60;99.90;;;;;;5125076;27;19926;-82
2023/12/02 07:40:19;;;;;;;;;;;-0.80;99.90;;;;;;5129527;27;19930;-83
2023/12/02 07:42:44;;;;;;;;;;;-0.80;99.90;;;;;;5125494;27;19919;-83
2023/12/02 07:45:10;;;;;;;;;;;-0.80;99.90;;;;;;5128014;27;19931;-82
2023/12/02 07:47:35;;;;;;;;;;;-0.80;99.90;;;;;;5128422;27;20087;-83
2023/12/02 07:50:01;;;;;;;;;;;-0.80;99.90;;;;;;5127171;27;20323;-82
2023/12/02 07:52:27;;;;;;;;;;;-0.80;99.90;;;;;;5132690;27;19920;-82
2023/12/02 07:54:52;;;;;;;;;;;-0.80;99.90;;;;;;5126703;27;19919;-82
2023/12/02 07:57:18;;;;;;;;;;;-0.60;99.90;;;;;;5129750;27;19919;-83
2023/12/02 07:59:44;;;;;;;;;;;-0.80;99.90;;;;;;5117488;27;19923;-83
2023/12/02 08:02:12;;;;;;;;;;;-0.80;99.90;;;;;;5131088;27;20290;-82
2023/12/02 08:04:38;;;;;;;;;;;-1.00;99.90;;;;;;5130255;27;19949;-82
2023/12/02 08:07:03;;;;;;;;;;;-0.80;99.90;;;;;;5127734;27;19919;-84
2023/12/02 08:09:32;;;;;;;;;;;-0.80;99.90;;;;;;5125857;27;20006;-83
2023/12/02 08:12:00;;;;;;;;;;;-0.80;99.90;;;;;;5125792;27;19920;-82
2023/12/02 08:14:26;;;;;;;;;;;-0.30;99.90;;;;;;5128988;27;19919;-85
2023/12/02 08:16:51;;;;;;;;;;;-0.80;99.90;;;;;;5126069;27;19951;-83
2023/12/02 08:19:17;;;;;;;;;;;-0.70;99.90;;;;;;5132877;27;20392;-82
2023/12/02 08:21:42;;;;;;;;;;;-0.70;99.90;;;;;;5148278;27;20055;-83
2023/12/02 08:24:08;;;;;;;;;;;-0.70;99.90;;;;;;5128409;27;19927;-84
2023/12/02 08:26:33;;;;;;;;;;;-0.70;99.90;;;;;;5126778;27;19926;-84
2023/12/02 08:28:59;;;;;;;;;;;-0.70;99.90;;;;;;5122775;27;19923;-84
2023/12/02 08:31:24;;;;;;;;;;;-0.70;99.90;;;;;;5127754;27;19944;-83
2023/12/02 08:33:50;;;;;;;;;;;-0.60;99.90;;;;;;5120431;27;20385;-83
2023/12/02 08:36:15;;;;;;;;;;;-0.60;99.90;;;;;;5119740;27;19922;-84
2023/12/02 08:38:42;;;;;;;;;;;-0.60;99.90;;;;;;5132812;27;19919;-83
2023/12/02 08:41:08;;;;;;;;;;;-0.60;99.90;;;;;;5133578;27;19920;-83
2023/12/02 08:43:33;;;;;;;;;;;0.90;99.90;;;;;;5125013;27;19941;-83
2023/12/02 08:45:59;;;;;;;;;;;-0.50;99.90;;;;;;5127525;27;20385;-84
2023/12/02 08:48:24;;;;;;;;;;;-0.40;99.90;;;;;;5147681;27;19923;-83
2023/12/02 08:50:50;;;;;;;;;;;-0.40;99.90;;;;;;5121755;27;19954;-83
2023/12/02 08:53:16;;;;;;;;;;;-0.30;99.90;;;;;;5125020;27;19926;-83
2023/12/02 08:55:42;;;;;;;;;;;1.10;99.90;;;;;;5121693;27;19966;-82
2023/12/02 08:58:07;;;;;;;;;;;-0.20;99.90;;;;;;5128067;27;20063;-83
2023/12/02 09:00:33;;;;;;;;;;;-0.10;99.90;;;;;;5123432;27;20010;-82
2023/12/02 09:02:58;;;;;;;;;;;-0.10;99.90;;;;;;5109152;28;20294;-82
2023/12/02 09:05:24;;;;;;;;;;;0.00;99.90;;;;;;5122262;27;19919;-82
2023/12/02 09:07:49;;;;;;;;;;;0.00;99.90;;;;;;5126830;27;19968;-82
2023/12/02 09:10:15;;;;;;;;;;;0.10;99.90;;;;;;5119650;27;19919;-82
2023/12/02 09:12:44;;;;;;;;;;;0.10;99.90;;;;;;5127975;27;19944;-83
2023/12/02 09:15:15;;;;;;;;;;;0.10;99.90;;;;;;5122924;27;19923;-81
2023/12/02 09:17:47;;;;;;;;;;;0.10;99.90;;;;;;5125710;27;19984;-81
2023/12/02 09:20:32;;;;;;;;;;;0.10;99.90;;;;;;5129379;27;19950;-81
2023/12/02 09:23:01;;;;;;;;;;;0.20;99.90;;;;;;5127964;27;19923;-81
2023/12/02 09:25:33;;;;;;;;;;;0.20;99.90;;;;;;5120964;27;19919;-79
2023/12/02 09:28:10;;;;;;;;;;;0.20;99.90;;;;;;5122080;27;19923;-78
2023/12/02 09:30:56;;;;;;;;;;;0.20;99.90;;;;;;5111977;27;19923;-79
2023/12/02 09:33:21;;;;;;;;;;;0.30;99.90;;;;;;5108196;28;19919;-79
2023/12/02 09:35:50;;;;;;;;;;;0.30;99.90;;;;;;5112959;27;20382;-78
2023/12/02 09:38:16;;;;;;;;;;;0.30;99.90;;;;;;5122319;27;19919;-78
2023/12/02 09:40:42;;;;;;;;;;;0.30;99.90;;;;;;5117474;27;19919;-78
2023/12/02 09:43:27;;;;;;;;;;;0.40;99.90;;;;;;5129561;28;20367;-78
2023/12/02 09:46:06;;;;;;;;;;;0.40;99.90;;;;;;5116028;28;20010;-78
2023/12/02 09:48:34;;;;;;;;;;;0.40;99.90;;;;;;5110059;28;19972;-78
2023/12/02 09:51:03;;;;;;;;;;;0.40;99.90;;;;;;5114350;28;20336;-78
2023/12/02 09:53:52;;;;;;;;;;;0.50;99.90;;;;;;5120769;28;20437;-78
2023/12/02 09:56:22;;;;;;;;;;;0.90;99.90;;;;;;5084319;28;19934;-77
2023/12/02 09:58:49;;;;;;;;;;;0.60;99.90;;;;;;5107947;28;19931;-78
2023/12/02 10:01:21;;;;;;;;;;;0.60;99.90;;;;;;5126532;28;19944;-78
2023/12/02 10:03:53;;;;;;;;;;;0.70;99.90;;;;;;5128627;28;19919;-77
2023/12/02 10:06:21;;;;;;;;;;;0.70;99.90;;;;;;5121565;28;19923;-78
2023/12/02 10:09:09;;;;;;;;;;;0.70;99.90;;;;;;5119578;28;19923;-74
2023/12/02 10:11:43;;;;;;;;;;;0.80;99.90;;;;;;5102784;28;19969;-75
2023/12/02 10:14:11;;;;;;;;;;;0.80;99.90;;;;;;5123856;28;19924;-75
2023/12/02 10:16:37;;;;;;;;;;;1.00;99.90;;;;;;5128252;28;19926;-75
2023/12/02 10:19:04;;;;;;;;;;;0.90;99.90;;;;;;5127328;28;19930;-75
2023/12/02 10:21:31;;;;;;;;;;;1.00;99.90;;;;;;5128058;28;19927;-75
2023/12/02 10:24:01;;;;;;;;;;;1.10;99.90;;;;;;5124263;28;19926;-75
2023/12/02 10:26:34;;;;;;;;;;;1.10;99.90;;;;;;5124292;28;19919;-75
2023/12/02 10:28:59;;;;;;;;;;;1.20;99.90;;;;;;5126198;28;19919;-75
2023/12/02 10:31:27;;;;;;;;;;;1.30;99.90;;;;;;5130528;27;20289;-75
2023/12/02 10:34:12;;;;;;;;;;;1.40;99.90;;;;;;5129130;27;19968;-75
2023/12/02 10:36:38;;;;;;;;;;;1.50;99.90;;;;;;5127295;27;20358;-73
2023/12/02 10:39:09;;;;;;;;;;;1.60;99.90;;;;;;5116650;27;20033;-73
2023/12/02 10:41:38;;;;;;;;;;;1.60;99.90;;;;;;5129493;27;20358;-73
2023/12/02 10:44:07;;;;;;;;;;;1.70;99.90;;;;;;5132911;27;20278;-73
2023/12/02 10:46:33;;;;;;;;;;;1.70;99.90;;;;;;5131189;27;20002;-73
2023/12/02 10:48:59;;;;;;;;;;;1.90;99.90;;;;;;5130641;27;19928;-73
2023/12/02 10:51:26;;;;;;;;;;;1.80;99.90;;;;;;5127297;27;19966;-72
2023/12/02 10:53:54;;;;;;;;;;;1.80;99.90;;;;;;5133566;27;20006;-74
2023/12/02 10:56:23;;;;;;;;;;;1.80;99.90;;;;;;5123152;27;19954;-73
2023/12/02 10:58:49;;;;;;;;;;;1.90;99.90;;;;;;5130218;27;19934;-75
2023/12/02 11:01:18;;;;;;;;;;;1.90;99.90;;;;;;5119440;27;19926;-74
2023/12/02 11:03:50;;;;;;;;;;;1.90;99.90;;;;;;5118903;27;19926;-74
2023/12/02 11:06:15;;;;;;;;;;;2.00;99.90;;;;;;5124833;27;20327;-74
2023/12/02 11:08:50;;;;;;;;;;;2.00;99.90;;;;;;5121461;27;19926;-74
2023/12/02 11:11:42;;;;;;;;;;;2.00;99.90;;;;;;5118986;27;20397;-74
2023/12/02 11:14:12;;;;;;;;;;;2.10;99.90;;;;;;5124550;27;19964;-75
2023/12/02 11:16:41;;;;;;;;;;;2.20;99.90;;;;;;5129085;27;20418;-76
2023/12/02 11:19:17;;;;;;;;;;;2.30;99.90;;;;;;5130613;27;19919;-75
2023/12/02 11:21:50;;;;;;;;;;;2.40;99.90;;;;;;5133278;27;19919;-75
2023/12/02 11:24:20;;;;;;;;;;;2.50;99.90;;;;;;5133869;27;19923;-75
2023/12/02 11:26:51;;;;;;;;;;;2.60;99.90;;;;;;5124417;27;19976;-75
2023/12/02 11:29:32;;;;;;;;;;;2.60;99.90;;;;;;5149318;27;20253;-75
2023/12/02 11:32:01;;;;;;;;;;;2.70;99.90;;;;;;5131126;27;19962;-75
2023/12/02 11:34:40;;;;;;;;;;;2.80;99.90;;;;;;5131122;27;19919;-75
2023/12/02 11:37:05;;;;;;;;;;;2.90;99.90;;;;;;5132878;27;19925;-76
2023/12/02 11:39:38;;;;;;;;;;;3.00;99.90;;;;;;5133455;27;20005;-75
2023/12/02 11:42:17;;;;;;;;;;;3.00;99.90;;;;;;5138545;27;20012;-75
2023/12/02 11:44:55;;;;;;;;;;;3.00;99.90;;;;;;5150544;27;20279;-74
2023/12/02 11:47:23;;;;;;;;;;;3.10;99.90;;;;;;5140957;27;19920;-74
2023/12/02 11:49:49;;;;;;;;;;;3.10;99.90;;;;;;5125303;27;19923;-74
2023/12/02 11:52:20;;;;;;;;;;;3.00;99.90;;;;;;5130448;27;19938;-74
2023/12/02 11:54:49;;;;;;;;;;;3.60;99.90;;;;;;5126144;27;19926;-74
2023/12/02 11:57:16;;;;;;;;;;;3.00;99.90;;;;;;5132078;27;19919;-74
2023/12/02 11:59:50;;;;;;;;;;;3.10;99.90;;;;;;5131822;27;20298;-73
2023/12/02 12:02:15;;;;;;;;;;;3.10;99.90;;;;;;5125757;27;19940;-72
2023/12/02 12:04:54;;;;;;;;;;;3.10;99.90;;;;;;5126573;27;20282;-72
2023/12/02 12:07:19;;;;;;;;;;;3.50;99.90;;;;;;5150151;27;19926;-73
2023/12/02 12:09:45;;;;;;;;;;;3.00;99.90;;;;;;5137993;27;19919;-73
2023/12/02 12:12:14;;;;;;;;;;;3.00;99.90;;;;;;5130888;27;19923;-73
2023/12/02 12:14:41;;;;;;;;;;;3.10;99.90;;;;;;5139440;27;19923;-73
2023/12/02 12:17:06;;;;;;;;;;;3.00;99.90;;;;;;5128066;27;20073;-73
2023/12/02 12:19:32;;;;;;;;;;;3.00;99.90;;;;;;5125159;27;19926;-74
2023/12/02 12:21:57;;;;;;;;;;;3.00;99.90;;;;;;5129134;27;20011;-75
2023/12/02 12:24:23;;;;;;;;;;;3.00;99.90;;;;;;5127540;27;19927;-75
2023/12/02 12:26:49;;;;;;;;;;;3.40;99.90;;;;;;5140897;27;19930;-76
2023/12/02 12:29:15;;;;;;;;;;;3.10;99.90;;;;;;5124788;27;19946;-75
2023/12/02 12:31:41;;;;;;;;;;;3.60;99.90;;;;;;5125276;27;19991;-75
2023/12/02 12:34:11;;;;;;;;;;;3.20;99.90;;;;;;5127327;27;19966;-76
2023/12/02 12:36:37;;;;;;;;;;;3.30;99.90;;;;;;5124576;27;19919;-77
2023/12/02 12:39:05;;;;;;;;;;;3.60;99.90;;;;;;5145029;27;19922;-74
2023/12/02 12:41:31;;;;;;;;;;;3.50;99.90;;;;;;5131590;27;19919;-77
2023/12/02 12:43:57;;;;;;;;;;;3.60;99.90;;;;;;5131953;27;19941;-77
2023/12/02 12:46:26;;;;;;;;;;;3.70;99.90;;;;;;5143253;27;19923;-78
2023/12/02 12:48:53;;;;;;;;;;;3.80;99.90;;;;;;5127855;27;19946;-77
2023/12/02 12:51:19;;;;;;;;;;;3.60;99.90;;;;;;5150514;27;19923;-77
2023/12/02 12:54:05;;;;;;;;;;;3.60;99.90;;;;;;5116480;27;20026;-78
2023/12/02 12:56:30;;;;;;;;;;;3.60;99.90;;;;;;5110653;27;20010;-78
2023/12/02 12:59:00;;;;;;;;;;;3.60;99.90;;;;;;5112490;27;20017;-79
2023/12/02 13:01:27;;;;;;;;;;;3.50;99.90;;;;;;5111459;27;20422;-77
2023/12/02 13:03:58;;;;;;;;;;;3.50;99.90;;;;;;5132934;27;19919;-75
2023/12/02 13:06:33;;;;;;;;;;;3.40;99.90;;;;;;5144944;27;19919;-75
2023/12/02 13:09:08;;;;;;;;;;;3.40;99.90;;;;;;5132197;27;19934;-75
2023/12/02 13:11:39;;;;;;;;;;;3.40;99.90;;;;;;5144401;27;19918;-75
2023/12/02 13:14:10;;;;;;;;;;;3.40;99.90;;;;;;5124466;27;19984;-77
2023/12/02 13:16:37;;;;;;;;;;;4.10;99.90;;;;;;5131517;27;19927;-75
2023/12/02 13:19:04;;;;;;;;;;;3.40;99.90;;;;;;5107733;27;19920;-76
2023/12/02 13:21:32;;;;;;;;;;;3.40;99.90;;;;;;5108546;28;19930;-76
2023/12/02 13:24:01;;;;;;;;;;;3.40;99.90;;;;;;5108310;28;20363;-76
2023/12/02 13:26:31;;;;;;;;;;;3.30;99.90;;;;;;5099158;28;19916;-75
2023/12/02 13:28:57;;;;;;;;;;;3.60;99.90;;;;;;5105066;28;20146;-76
2023/12/02 13:31:23;;;;;;;;;;;3.30;99.90;;;;;;5087470;28;19920;-75
2023/12/02 13:33:52;;;;;;;;;;;3.20;99.90;;;;;;5089863;28;19935;-76
2023/12/02 13:36:22;;;;;;;;;;;3.20;99.90;;;;;;5089641;28;20385;-76
2023/12/02 13:38:55;;;;;;;;;;;3.20;99.90;;;;;;5089990;28;19924;-76
2023/12/02 13:41:33;;;;;;;;;;;3.20;99.90;;;;;;5095727;28;19924;-76
2023/12/02 13:44:03;;;;;;;;;;;3.20;99.90;;;;;;5098143;28;19958;-75
2023/12/02 13:46:32;;;;;;;;;;;3.10;99.90;;;;;;5093837;28;20272;-75
2023/12/02 13:49:10;;;;;;;;;;;3.20;99.90;;;;;;5099627;28;19937;-76
2023/12/02 13:51:45;;;;;;;;;;;3.20;99.90;;;;;;5105386;28;19919;-76
2023/12/02 13:54:37;;;;;;;;;;;3.10;99.90;;;;;;5100122;28;20007;-75
2023/12/02 13:57:21;;;;;;;;;;;3.10;99.90;;;;;;5106938;28;19928;-76
2023/12/02 13:59:52;;;;;;;;;;;3.10;99.90;;;;;;5087241;28;19920;-76
2023/12/02 14:02:37;;;;;;;;;;;3.10;99.90;;;;;;5090661;28;19916;-75
2023/12/02 14:05:07;;;;;;;;;;;3.10;99.90;;;;;;5102383;28;19923;-75
2023/12/02 14:07:33;;;;;;;;;;;3.60;99.90;;;;;;5093843;28;19927;-75
2023/12/02 14:09:59;;;;;;;;;;;3.10;99.90;;;;;;5091667;28;20302;-79
2023/12/02 14:12:31;;;;;;;;;;;3.00;99.90;;;;;;5092710;28;20078;-76
2023/12/02 14:15:15;;;;;;;;;;;3.90;99.90;;;;;;5109201;28;19928;-76
2023/12/02 14:17:40;;;;;;;;;;;3.00;99.90;;;;;;5113674;27;19930;-76
2023/12/02 14:20:18;;;;;;;;;;;3.00;99.90;;;;;;5130945;27;19923;-75
2023/12/02 14:23:03;;;;;;;;;;;2.90;99.90;;;;;;5130608;27;19930;-75